Lake View, NY (14085)

8:03 PM EDT on June 24, 2017 (GMT -0400)
Hamburg | | Change Station
Active Advisory: Beach Hazard Statement

Elev 0 ft 42.73 °N, 78.86 °W | Updated 3 minutes ago

Partly Cloudy
Partly Cloudy
66.7 °F
Feels Like 66.7 °F
N
0.6
Wind Variable Wind from East
Gusts 3.1 mph

Today
High -- | Low -- °F
--% Chance of Precip.
Yesterday
High -- | Low -- °F
Precip. -- in
Pressure 29.88 in
Visibility 10.0 miles
Clouds Few 3300 ft
Mostly Cloudy 7000 ft
Mostly Cloudy 10000 ft
Mostly Cloudy 14000 ft
Mostly Cloudy 23000 ft
Dew Point 57 °F
Humidity 70%
Rainfall 0.05 in
Snow Depth Not available.
5:38 AM 8:57 PM
New Moon, 1% visible
METAR KBUF 242354Z 24013KT 10SM FEW033 BKN070 BKN100 BKN140 BKN230 21/11 A2989 RMK AO2 PK WND 25026/2322 LTG DSNT E RAB22E32 SLP118 CB DSNT NE MOV E P0000 60000 T02060106 10233 20200 53015
Pressure 29.88 in
Visibility 10.0 miles
Clouds Few 3300 ft
Mostly Cloudy 7000 ft
Mostly Cloudy 10000 ft
Mostly Cloudy 14000 ft
Mostly Cloudy 23000 ft
Dew Point 57 °F
Humidity 70%
Rainfall 0.05 in
Snow Depth Not available.
5:38 AM 8:57 PM
New Moon, 1% visible
METAR KBUF 242354Z 24013KT 10SM FEW033 BKN070 BKN100 BKN140 BKN230 21/11 A2989 RMK AO2 PK WND 25026/2322 LTG DSNT E RAB22E32 SLP118 CB DSNT NE MOV E P0000 60000 T02060106 10233 20200 53015

Get Your Daily Forecast Email!

Thanks for signing up!

Be on the lookout for a verification email in your inbox.

You'll start receiving severe weather alerts in your inbox..

×

10-Day Weather Forecast

Almanac

Astronomy

Jun. 24, 2017 Rise Set
Actual Time
Civil Twilight
Nautical Twilight
Astronomical Twilight
Moon
Length of Visible Light
Length of Day
Tomorrow will be .
, % of the Moon is Illuminated

Today's Extremes

State Highs State Lows

Community

WunderPhotos

Category 6

Welcome to Category 6. This is the collective home for Weather Underground's featured writeups by Dr. Jeff Masters (right), Bob Henson (left), Chris Burt, and other regular contributors.

Nearby

Air Quality

  Air Quality AQ Index Pollutant
Not available.

Snow Depth

Station Depth Elevation

Earthquake Activity

City Distance Mag. Time & Date
Minimum magnitude displayed is 2.5.

Coastal Water Temperatures

Place Temperature

Stations

Nearby Weather Stations

Station Location Temp. Windchill Dew Point Humidity Wind Precip. Elev Updated Type
                   

Watches & Warnings

Beach Hazard Statement
Issued: 5:41 PM EDT Jun. 24, 2017 – National Weather Service

... Beach hazards statement remains in effect until 10 PM EDT this
evening...

* locations... beaches of Chautauqua and southern Erie counties.

* Timing... through late this evening.

* Impacts... strong currents and dangerous swimming conditions.

Precautionary/preparedness actions...

A beach hazards statement is issued when there is a high swim
risk. This means life threatening waves and currents are
expected. Stay out of the water and stay away from dangerous
areas like piers and breakwalls.